createdAt,value
2023-04-25T00:00:05.598Z,53.57055664
2023-04-25T00:01:06.693Z,53.77197266
2023-04-25T00:02:09.034Z,53.67431641
2023-04-25T00:03:10.755Z,53.87573242
2023-04-25T00:04:11.686Z,53.46679688
2023-04-25T00:05:45.232Z,53.57055664
2023-04-25T00:06:46.104Z,53.16162109
2023-04-25T00:07:47.065Z,53.36303711
2023-04-25T00:08:48.110Z,53.57055664
2023-04-25T00:09:49.956Z,53.77197266
2023-04-25T00:10:51.634Z,53.77197266
2023-04-25T00:11:53.604Z,53.57055664
2023-04-25T00:12:54.480Z,53.67431641
2023-04-25T00:13:55.850Z,53.57055664
2023-04-25T00:14:57.426Z,53.77197266
2023-04-25T00:15:59.573Z,53.87573242
2023-04-25T00:17:00.452Z,53.87573242
2023-04-25T00:18:01.420Z,53.97949219
2023-04-25T00:19:02.993Z,53.97949219
2023-04-25T00:20:04.503Z,54.1809082
2023-04-25T00:21:05.311Z,54.07714844
2023-04-25T00:22:06.357Z,53.97949219
2023-04-25T00:23:07.272Z,53.97949219
2023-04-25T00:24:08.252Z,53.67431641
2023-04-25T00:25:10.058Z,53.54614258
2023-04-25T00:26:11.527Z,53.57055664
2023-04-25T00:27:12.929Z,53.74755859
2023-04-25T00:28:44.996Z,53.74755859
2023-04-25T00:29:45.790Z,53.64379883
2023-04-25T00:30:47.385Z,53.54614258
2023-04-25T00:31:48.184Z,53.54614258
2023-04-25T00:32:49.030Z,53.64379883
2023-04-25T00:33:50.847Z,53.74755859
2023-04-25T00:34:51.486Z,53.74755859
2023-04-25T00:35:52.928Z,53.54614258
2023-04-25T00:36:54.439Z,53.44238281
2023-04-25T00:37:55.353Z,53.54614258
2023-04-25T00:38:56.953Z,53.74755859
2023-04-25T00:39:58.561Z,53.85131836
2023-04-25T00:41:00.029Z,53.95507813
2023-04-25T00:42:00.941Z,53.85131836
2023-04-25T00:43:01.983Z,53.85131836
2023-04-25T00:44:03.554Z,53.74755859
2023-04-25T00:45:04.488Z,53.85131836
2023-04-25T00:46:05.915Z,53.85131836
2023-04-25T00:47:07.607Z,53.95507813
2023-04-25T00:48:09.057Z,53.95507813
2023-04-25T00:49:10.497Z,53.85131836
2023-04-25T00:50:12.074Z,54.26025391
2023-04-25T00:51:43.398Z,54.28466797
2023-04-25T00:52:44.150Z,54.28466797
2023-04-25T00:53:44.976Z,54.28466797
2023-04-25T00:54:46.639Z,54.28466797
2023-04-25T00:55:48.002Z,54.48608398
2023-04-25T00:56:49.575Z,54.79125977
2023-04-25T00:57:50.393Z,54.66918945
2023-04-25T00:58:51.932Z,54.79125977
2023-04-25T00:59:53.419Z,54.87060547
2023-04-25T01:00:54.274Z,54.58984375
2023-04-25T01:01:56.126Z,54.46166992
2023-04-25T01:02:57.113Z,54.46166992
2023-04-25T01:03:57.897Z,54.56542969
2023-04-25T01:04:59.540Z,54.56542969
2023-04-25T01:06:01.019Z,54.66918945
2023-04-25T01:07:02.651Z,54.7668457
2023-04-25T01:08:03.550Z,54.87060547
2023-04-25T01:09:04.484Z,54.66918945
2023-04-25T01:10:07.028Z,54.66918945
2023-04-25T01:11:08.521Z,54.56542969
2023-04-25T01:12:09.346Z,54.56542969
2023-04-25T01:13:10.191Z,54.56542969
2023-04-25T01:14:12.027Z,55.07202148
2023-04-25T01:15:44.130Z,54.87060547
2023-04-25T01:16:46.086Z,54.66918945
2023-04-25T01:17:47.812Z,54.87060547
2023-04-25T01:18:49.562Z,54.97436523
2023-04-25T01:19:50.387Z,55.17578125
2023-04-25T01:20:52.063Z,55.27954102
2023-04-25T01:21:52.861Z,55.78613281
2023-04-25T01:22:54.581Z,55.99365234
2023-04-25T01:23:55.446Z,56.01806641
2023-04-25T01:24:57.091Z,56.12182617
2023-04-25T01:25:58.515Z,56.62841797
2023-04-25T01:27:00.064Z,56.8359375
2023-04-25T01:28:00.928Z,56.73217773
2023-04-25T01:29:02.418Z,56.93969727
2023-04-25T01:30:04.092Z,57.24487305
2023-04-25T01:31:04.848Z,57.24487305
2023-04-25T01:32:05.698Z,57.24487305
2023-04-25T01:33:06.549Z,57.24487305
2023-04-25T01:34:07.396Z,57.24487305
2023-04-25T01:35:09.053Z,57.01293945
2023-04-25T01:36:10.537Z,57.01293945
2023-04-25T01:37:11.998Z,57.11669922
2023-04-25T01:38:43.353Z,56.90917969
2023-04-25T01:39:45.556Z,56.80541992
2023-04-25T01:40:46.573Z,56.90917969
2023-04-25T01:41:47.913Z,56.40258789
2023-04-25T01:42:48.773Z,56.50024414
2023-04-25T01:43:49.871Z,56.50024414
2023-04-25T01:44:51.004Z,56.50024414
2023-04-25T01:45:52.712Z,56.70776367
2023-04-25T01:46:54.034Z,56.80541992
2023-04-25T01:47:54.806Z,57.11669922
2023-04-25T01:48:56.553Z,57.9284668
2023-04-25T01:49:57.366Z,58.13598633
2023-04-25T01:50:58.990Z,58.23364258
2023-04-25T01:51:59.723Z,58.13598633
2023-04-25T01:53:00.612Z,57.51953125
2023-04-25T01:54:01.505Z,57.62329102
2023-04-25T01:55:03.027Z,57.83081055
2023-04-25T01:56:04.488Z,57.72705078
2023-04-25T01:57:06.033Z,57.72705078
2023-04-25T01:58:06.846Z,57.62329102
2023-04-25T01:59:07.864Z,57.72705078
2023-04-25T02:00:09.423Z,57.83081055
2023-04-25T02:01:11.028Z,59.35668945
2023-04-25T02:02:42.478Z,57.51953125
2023-04-25T02:03:43.298Z,57.51953125
2023-04-25T02:04:45.079Z,57.421875
2023-04-25T02:05:46.399Z,57.421875
2023-04-25T02:06:47.256Z,57.72705078
2023-04-25T02:07:48.953Z,57.9284668
2023-04-25T02:08:49.746Z,58.16040039
2023-04-25T02:09:52.034Z,58.03222656
2023-04-25T02:10:52.867Z,58.05664063
2023-04-25T02:11:54.478Z,58.16040039
2023-04-25T02:12:55.305Z,58.16040039
2023-04-25T02:13:56.953Z,58.36791992
2023-04-25T02:14:58.612Z,58.46557617
2023-04-25T02:15:59.622Z,58.56933594
2023-04-25T02:17:01.766Z,58.9050293
2023-04-25T02:18:02.454Z,58.80126953
2023-04-25T02:19:04.056Z,58.80126953
2023-04-25T02:20:04.897Z,58.59985352
2023-04-25T02:21:06.652Z,58.83178711
2023-04-25T02:22:07.526Z,59.03320313
2023-04-25T02:23:08.471Z,59.36889648
2023-04-25T02:24:09.352Z,59.26513672
2023-04-25T02:25:11.370Z,59.36889648
2023-04-25T02:26:44.048Z,59.67407227
2023-04-25T02:27:45.014Z,59.70458984
2023-04-25T02:28:46.474Z,59.08813477
2023-04-25T02:29:47.957Z,59.2956543
2023-04-25T02:30:49.566Z,59.19189453
2023-04-25T02:31:50.503Z,58.984375
2023-04-25T02:32:51.533Z,58.984375
2023-04-25T02:33:52.536Z,59.19189453
2023-04-25T02:34:54.044Z,58.4777832
2023-04-25T02:35:55.519Z,58.27026367
2023-04-25T02:36:56.437Z,58.37402344
2023-04-25T02:37:58.132Z,58.16650391
2023-04-25T02:38:59.451Z,57.75756836
2023-04-25T02:40:01.008Z,57.86132813
2023-04-25T02:41:02.564Z,57.96508789
2023-04-25T02:42:03.448Z,57.96508789
2023-04-25T02:43:04.308Z,58.27026367
2023-04-25T02:44:05.235Z,58.16650391
2023-04-25T02:45:07.041Z,57.7331543
2023-04-25T02:46:08.627Z,57.01904297
2023-04-25T02:47:10.082Z,57.11669922
2023-04-25T02:48:12.204Z,56.73828125
2023-04-25T02:49:44.501Z,56.93969727
2023-04-25T02:50:45.984Z,56.84204102
2023-04-25T02:51:46.860Z,56.84204102
2023-04-25T02:52:47.656Z,57.04345703
2023-04-25T02:53:48.705Z,57.1472168
2023-04-25T02:54:49.912Z,57.04345703
2023-04-25T02:55:51.507Z,57.1472168
2023-04-25T02:56:53.046Z,57.34863281
2023-04-25T02:57:54.571Z,57.65991211
2023-04-25T02:58:55.524Z,57.34863281
2023-04-25T02:59:56.992Z,57.45239258
2023-04-25T03:00:58.006Z,58.19702148
2023-04-25T03:01:59.567Z,58.60595703
2023-04-25T03:03:00.712Z,58.50219727
2023-04-25T03:04:01.518Z,59.03930664
2023-04-25T03:05:03.050Z,58.73413086
2023-04-25T03:06:05.079Z,59.03930664
2023-04-25T03:07:05.959Z,59.35058594
2023-04-25T03:08:07.530Z,59.68017578
2023-04-25T03:09:08.954Z,59.55200195
2023-04-25T03:10:10.554Z,59.99145508
2023-04-25T03:11:42.519Z,60.29663086
2023-04-25T03:12:43.411Z,60.40039063
2023-04-25T03:13:44.359Z,60.70556641
2023-04-25T03:14:45.285Z,60.80932617
2023-04-25T03:15:46.946Z,61.01074219
2023-04-25T03:16:47.952Z,61.21826172
2023-04-25T03:17:49.537Z,61.32202148
2023-04-25T03:18:51.053Z,61.01074219
2023-04-25T03:19:51.996Z,61.11450195
2023-04-25T03:20:53.576Z,61.11450195
2023-04-25T03:21:54.493Z,61.01074219
2023-04-25T03:22:55.352Z,61.2487793
2023-04-25T03:23:56.199Z,61.34643555
2023-04-25T03:24:57.122Z,61.65771484
2023-04-25T03:25:59.011Z,61.76147461
2023-04-25T03:27:00.215Z,62.06665039
2023-04-25T03:28:02.576Z,62.50610352
2023-04-25T03:29:03.560Z,62.50610352
2023-04-25T03:30:04.470Z,62.40234375
2023-04-25T03:31:06.003Z,62.40234375
2023-04-25T03:32:06.882Z,62.19482422
2023-04-25T03:33:07.817Z,61.96289063
2023-04-25T03:34:08.682Z,61.76147461
2023-04-25T03:35:10.871Z,61.88964844
2023-04-25T03:36:42.959Z,61.76147461
2023-04-25T03:37:44.494Z,61.76147461
2023-04-25T03:38:47.095Z,61.76147461
2023-04-25T03:39:48.677Z,61.76147461
2023-04-25T03:40:49.554Z,61.65771484
2023-04-25T03:41:50.930Z,61.34643555
2023-04-25T03:42:51.929Z,61.01074219
2023-04-25T03:43:53.104Z,60.91308594
2023-04-25T03:44:55.065Z,60.70556641
2023-04-25T03:45:56.028Z,60.70556641
2023-04-25T03:46:57.522Z,60.36987305
2023-04-25T03:47:59.111Z,60.26611328
2023-04-25T03:49:00.575Z,60.06469727
2023-04-25T03:50:01.651Z,59.85717773
2023-04-25T03:51:03.640Z,59.72900391
2023-04-25T03:52:04.429Z,59.72900391
2023-04-25T03:53:05.305Z,59.72900391
2023-04-25T03:54:07.133Z,59.62524414
2023-04-25T03:55:08.454Z,59.72900391
2023-04-25T03:56:10.146Z,59.72900391
2023-04-25T03:57:42.037Z,59.93652344
2023-04-25T03:58:42.890Z,60.13793945
2023-04-25T03:59:44.657Z,60.24169922
2023-04-25T04:00:45.722Z,60.13793945
2023-04-25T04:01:46.736Z,60.24169922
2023-04-25T04:02:48.549Z,60.34545898
2023-04-25T04:03:49.909Z,60.34545898
2023-04-25T04:04:51.426Z,60.546875
2023-04-25T04:05:53.231Z,60.75439453
2023-04-25T04:06:54.048Z,60.75439453
2023-04-25T04:07:55.584Z,60.75439453
2023-04-25T04:08:56.654Z,60.75439453
2023-04-25T04:09:58.592Z,61.16333008
2023-04-25T04:11:00.620Z,61.26098633
2023-04-25T04:12:01.647Z,60.95581055
2023-04-25T04:13:02.649Z,61.05957031
2023-04-25T04:14:03.529Z,60.85205078
2023-04-25T04:15:05.075Z,60.75439453
2023-04-25T04:16:06.222Z,60.95581055
2023-04-25T04:17:08.221Z,61.16333008
2023-04-25T04:18:10.143Z,61.36474609
2023-04-25T04:19:41.511Z,60.95581055
2023-04-25T04:20:43.100Z,60.24169922
2023-04-25T04:21:45.087Z,59.93652344
2023-04-25T04:22:46.071Z,60.03417969
2023-04-25T04:23:47.195Z,60.13793945
2023-04-25T04:24:49.054Z,60.13793945
2023-04-25T04:25:50.597Z,60.24169922
2023-04-25T04:26:51.533Z,60.03417969
2023-04-25T04:27:53.158Z,60.24169922
2023-04-25T04:28:54.166Z,60.44311523
2023-04-25T04:29:55.088Z,60.85205078
2023-04-25T04:30:56.600Z,60.85205078
2023-04-25T04:31:57.557Z,60.95581055
2023-04-25T04:32:58.525Z,60.34545898
2023-04-25T04:34:00.572Z,60.03417969
2023-04-25T04:35:01.562Z,59.62524414
2023-04-25T04:36:03.026Z,59.52758789
2023-04-25T04:37:03.877Z,59.83276367
2023-04-25T04:38:05.706Z,59.83276367
2023-04-25T04:39:06.615Z,59.72900391
2023-04-25T04:40:08.228Z,59.62524414
2023-04-25T04:41:10.052Z,62.76855469
2023-04-25T04:42:41.469Z,60.82763672
2023-04-25T04:43:42.508Z,59.80224609
2023-04-25T04:44:44.598Z,60.34545898
2023-04-25T04:45:46.072Z,61.29150391
2023-04-25T04:46:46.970Z,61.70043945
2023-04-25T04:47:47.877Z,61.80419922
2023-04-25T04:48:49.567Z,61.90795898
2023-04-25T04:49:51.105Z,62.109375
2023-04-25T04:50:52.229Z,62.21313477
2023-04-25T04:51:54.054Z,62.31689453
2023-04-25T04:52:54.990Z,62.21313477
2023-04-25T04:53:55.978Z,61.98120117
2023-04-25T04:54:56.899Z,61.77368164
2023-04-25T04:55:58.665Z,61.66992188
2023-04-25T04:57:00.656Z,61.46850586
2023-04-25T04:58:01.565Z,61.36474609
2023-04-25T04:59:04.059Z,61.46850586
2023-04-25T05:00:05.035Z,61.66992188
2023-04-25T05:01:06.635Z,61.66992188
2023-04-25T05:02:07.640Z,61.98120117
2023-04-25T05:03:08.806Z,62.07885742
2023-04-25T05:04:10.228Z,61.43798828
2023-04-25T05:05:42.576Z,61.23657227
2023-04-25T05:06:43.881Z,61.1328125
2023-04-25T05:07:45.595Z,61.1328125
2023-04-25T05:08:47.071Z,60.82763672
2023-04-25T05:09:48.542Z,60.72387695
2023-04-25T05:10:49.512Z,60.93139648
2023-04-25T05:11:50.565Z,61.1328125
2023-04-25T05:12:51.510Z,61.23657227
2023-04-25T05:13:52.930Z,61.54174805
2023-04-25T05:14:54.075Z,61.87744141
2023-04-25T05:15:55.621Z,61.98120117
2023-04-25T05:16:56.639Z,62.39013672
2023-04-25T05:17:57.665Z,62.39013672
2023-04-25T05:18:59.081Z,62.59155273
2023-04-25T05:20:00.537Z,63.00048828
2023-04-25T05:21:01.492Z,63.51318359
2023-04-25T05:22:02.485Z,63.92211914
2023-04-25T05:23:04.147Z,64.22729492
2023-04-25T05:24:06.104Z,64.33105469
2023-04-25T05:25:07.541Z,64.63623047
2023-04-25T05:26:08.591Z,65.04516602
2023-04-25T05:27:40.572Z,65.25268555
2023-04-25T05:28:42.708Z,65.46020508
2023-04-25T05:29:43.971Z,65.66162109
2023-04-25T05:30:45.551Z,65.76538086
2023-04-25T05:31:46.487Z,66.30859375
2023-04-25T05:32:47.449Z,66.20483398
2023-04-25T05:33:48.869Z,66.30859375
2023-04-25T05:34:50.687Z,66.30859375
2023-04-25T05:35:52.556Z,66.61376953
2023-04-25T05:36:53.408Z,66.51000977
2023-04-25T05:37:54.482Z,66.81518555
2023-04-25T05:38:56.144Z,67.15698242
2023-04-25T05:39:58.625Z,67.56591797
2023-04-25T05:41:00.629Z,67.35839844
2023-04-25T05:42:01.518Z,67.56591797
2023-04-25T05:43:03.285Z,67.56591797
2023-04-25T05:44:04.446Z,67.56591797
2023-04-25T05:45:06.211Z,67.35839844
2023-04-25T05:46:07.310Z,67.7734375
2023-04-25T05:47:08.222Z,68.21289063
2023-04-25T05:48:41.126Z,68.41430664
2023-04-25T05:49:42.164Z,68.72558594
2023-04-25T05:50:44.565Z,68.8293457
2023-04-25T05:51:45.667Z,68.72558594
2023-04-25T05:52:47.560Z,68.8293457
2023-04-25T05:53:48.710Z,69.03076172
2023-04-25T05:54:50.162Z,69.13452148
2023-04-25T05:55:52.311Z,69.3359375
2023-04-25T05:56:53.214Z,69.13452148
2023-04-25T05:57:55.044Z,69.03076172
2023-04-25T05:58:56.568Z,69.00024414
2023-04-25T05:59:57.650Z,68.89648438
2023-04-25T06:00:59.700Z,68.79272461
2023-04-25T06:02:00.777Z,68.89648438
2023-04-25T06:03:01.878Z,68.8659668
2023-04-25T06:04:03.054Z,68.96972656
2023-04-25T06:05:03.653Z,69.17114258
2023-04-25T06:06:05.170Z,69.06738281
2023-04-25T06:07:06.112Z,69.37866211
2023-04-25T06:08:07.559Z,69.37866211
2023-04-25T06:09:09.586Z,69.58007813
2023-04-25T06:10:41.821Z,69.37866211
2023-04-25T06:11:44.043Z,69.27490234
2023-04-25T06:12:45.165Z,69.47631836
2023-04-25T06:13:46.038Z,69.68383789
2023-04-25T06:14:47.570Z,69.98901367
2023-04-25T06:15:49.044Z,70.29418945
2023-04-25T06:16:50.634Z,70.50170898
2023-04-25T06:17:51.722Z,70.63598633
2023-04-25T06:18:53.566Z,70.73974609
2023-04-25T06:19:54.459Z,70.53222656
2023-04-25T06:20:56.060Z,70.63598633
2023-04-25T06:21:57.051Z,70.73974609
2023-04-25T06:22:57.940Z,70.12329102
2023-04-25T06:23:58.904Z,70.02563477
2023-04-25T06:25:00.561Z,70.33081055
2023-04-25T06:26:01.966Z,70.63598633
2023-04-25T06:27:03.079Z,70.84350586
2023-04-25T06:28:04.087Z,70.73974609
2023-04-25T06:29:06.571Z,70.73974609
2023-04-25T06:30:07.458Z,71.25244141
2023-04-25T06:31:39.645Z,71.45385742
2023-04-25T06:32:40.622Z,71.76513672
2023-04-25T06:33:41.562Z,72.17407227
2023-04-25T06:34:43.084Z,72.27783203
2023-04-25T06:35:45.056Z,72.27783203
2023-04-25T06:36:45.881Z,72.78442383
2023-04-25T06:37:47.515Z,72.99194336
2023-04-25T06:38:49.268Z,73.19946289
2023-04-25T06:39:51.096Z,72.99194336
2023-04-25T06:40:53.063Z,73.40087891
2023-04-25T06:41:54.218Z,73.29711914
2023-04-25T06:42:55.181Z,73.09570313
2023-04-25T06:43:56.106Z,72.95532227
2023-04-25T06:44:58.094Z,72.95532227
2023-04-25T06:45:59.577Z,72.95532227
2023-04-25T06:47:00.516Z,73.05908203
2023-04-25T06:48:02.142Z,73.36425781
2023-04-25T06:49:03.590Z,73.36425781
2023-04-25T06:50:04.656Z,72.13745117
2023-04-25T06:51:06.605Z,71.52709961
2023-04-25T06:52:07.616Z,71.52709961
2023-04-25T06:53:08.963Z,71.38671875
2023-04-25T06:54:41.091Z,70.9777832
2023-04-25T06:55:42.660Z,70.88012695
2023-04-25T06:56:44.599Z,70.67260742
2023-04-25T06:57:45.491Z,70.47119141
2023-04-25T06:58:47.102Z,70.56884766
2023-04-25T06:59:48.596Z,70.67260742
2023-04-25T07:00:49.586Z,70.77636719
2023-04-25T07:01:51.006Z,71.15478516
2023-04-25T07:02:52.261Z,71.66137695
2023-04-25T07:03:53.134Z,71.15478516
2023-04-25T07:04:54.651Z,70.53833008
2023-04-25T07:05:56.384Z,70.33691406
2023-04-25T07:06:57.405Z,70.74584961
2023-04-25T07:07:59.087Z,71.05102539
2023-04-25T07:09:00.614Z,70.2331543
2023-04-25T07:10:02.069Z,70.33691406
2023-04-25T07:11:03.692Z,70.64208984
2023-04-25T07:12:04.689Z,70.60546875
2023-04-25T07:13:05.674Z,70.30029297
2023-04-25T07:14:06.630Z,69.99511719
2023-04-25T07:15:08.144Z,70.40405273
2023-04-25T07:16:40.153Z,70.40405273
2023-04-25T07:17:42.141Z,70.30029297
2023-04-25T07:18:43.671Z,70.64208984
2023-04-25T07:19:45.657Z,73.57177734
2023-04-25T07:20:46.496Z,73.50463867
2023-04-25T07:21:47.947Z,73.1262207
2023-04-25T07:22:49.034Z,73.46801758
2023-04-25T07:23:50.078Z,73.05908203
2023-04-25T07:24:52.131Z,72.44262695
2023-04-25T07:25:53.616Z,71.52099609
2023-04-25T07:26:54.486Z,72.17407227
2023-04-25T07:27:55.492Z,73.22998047
2023-04-25T07:28:57.100Z,73.67553711
2023-04-25T07:29:58.603Z,74.70092773
2023-04-25T07:30:59.992Z,74.08447266
2023-04-25T07:32:00.927Z,75.04272461
2023-04-25T07:33:01.770Z,75.86669922
2023-04-25T07:34:02.704Z,75.21362305
2023-04-25T07:35:04.679Z,76.03759766
2023-04-25T07:36:06.540Z,76.06811523
2023-04-25T07:37:08.563Z,76.34277344
2023-04-25T07:38:40.524Z,75.42114258
2023-04-25T07:39:41.534Z,75.14648438
2023-04-25T07:40:42.660Z,74.84130859
2023-04-25T07:41:44.240Z,75.76293945
2023-04-25T07:42:45.065Z,76.31225586
2023-04-25T07:43:46.075Z,77.23388672
2023-04-25T07:44:47.636Z,76.78833008
2023-04-25T07:45:48.762Z,76.68457031
2023-04-25T07:46:50.508Z,75.55541992
2023-04-25T07:47:51.448Z,76.82495117
2023-04-25T07:48:53.394Z,78.36303711
2023-04-25T07:49:54.603Z,77.33764648
2023-04-25T07:50:55.527Z,74.87182617
2023-04-25T07:51:56.988Z,75.04272461
2023-04-25T07:52:57.878Z,75.35400391
2023-04-25T07:53:59.600Z,75.35400391
2023-04-25T07:55:01.600Z,75.76293945
2023-04-25T07:56:03.118Z,76.37939453
2023-04-25T07:57:04.062Z,76.27563477
2023-04-25T07:58:04.964Z,76.06811523
2023-04-25T07:59:05.927Z,75.76293945
2023-04-25T08:00:07.534Z,76.27563477
2023-04-25T08:01:39.616Z,76.99584961
2023-04-25T08:02:40.618Z,77.57568359
2023-04-25T08:03:42.276Z,77.36816406
2023-04-25T08:04:43.198Z,76.92260742
2023-04-25T08:05:45.765Z,76.71508789
2023-04-25T08:06:46.634Z,76.10473633
2023-04-25T08:07:48.528Z,76.00097656
2023-04-25T08:08:50.324Z,76.171875
2023-04-25T08:09:51.591Z,75.65917969
2023-04-25T08:10:53.576Z,76.03149414
2023-04-25T08:11:54.654Z,76.03149414
2023-04-25T08:12:55.556Z,75.82397461
2023-04-25T08:13:56.425Z,74.70092773
2023-04-25T08:14:58.081Z,75.41503906
2023-04-25T08:15:59.628Z,75.72631836
2023-04-25T08:17:00.508Z,75.17700195
2023-04-25T08:18:01.380Z,74.76806641
2023-04-25T08:19:02.967Z,74.45678711
2023-04-25T08:20:04.450Z,74.25537109
2023-04-25T08:21:06.114Z,74.73144531
2023-04-25T08:22:07.065Z,74.32250977
2023-04-25T08:23:38.947Z,74.01733398
2023-04-25T08:24:40.486Z,74.08447266
2023-04-25T08:25:41.958Z,74.28588867
2023-04-25T08:26:43.630Z,73.87695313
2023-04-25T08:27:44.649Z,74.69482422
2023-04-25T08:28:46.101Z,75.48217773
2023-04-25T08:29:48.554Z,75.17089844
2023-04-25T08:30:49.365Z,74.15161133
2023-04-25T08:31:51.056Z,74.35302734
2023-04-25T08:32:52.114Z,73.60839844
2023-04-25T08:33:53.032Z,73.70605469
2023-04-25T08:34:53.876Z,74.62768555
2023-04-25T08:35:55.468Z,74.93286133
2023-04-25T08:36:57.147Z,74.62768555
2023-04-25T08:37:58.013Z,74.38964844
2023-04-25T08:38:58.925Z,74.59106445
2023-04-25T08:40:01.138Z,73.87695313
2023-04-25T08:41:02.552Z,73.87695313
2023-04-25T08:42:03.418Z,73.74267578
2023-04-25T08:43:04.342Z,73.74267578
2023-04-25T08:44:06.102Z,73.22998047
2023-04-25T08:45:07.647Z,72.92480469
2023-04-25T08:46:40.112Z,72.10693359
2023-04-25T08:47:40.921Z,71.80175781
2023-04-25T08:48:42.573Z,72.30834961
2023-04-25T08:49:43.968Z,74.18212891
2023-04-25T08:50:46.612Z,72.85766602
2023-04-25T08:51:47.543Z,72.24121094
2023-04-25T08:52:48.946Z,73.05908203
2023-04-25T08:53:53.671Z,73.57177734
2023-04-25T08:54:51.585Z,73.57177734
2023-04-25T08:55:53.085Z,73.57177734
2023-04-25T08:56:54.057Z,73.57177734
2023-04-25T08:57:55.580Z,72.95532227
2023-04-25T08:58:56.643Z,72.54638672
2023-04-25T08:59:58.600Z,71.93603516
2023-04-25T09:01:00.088Z,72.24121094
2023-04-25T09:02:01.059Z,72.54638672
2023-04-25T09:03:02.755Z,72.85766602
2023-04-25T09:04:03.736Z,72.75390625
2023-04-25T09:05:05.561Z,72.24121094
2023-04-25T09:06:07.554Z,71.93603516
2023-04-25T09:07:39.127Z,72.68676758
2023-04-25T09:08:40.790Z,73.60839844
2023-04-25T09:09:42.578Z,74.56054688
2023-04-25T09:10:44.231Z,72.92480469
2023-04-25T09:11:46.120Z,72.44873047
2023-04-25T09:12:47.075Z,72.3449707
2023-04-25T09:13:48.061Z,72.37548828
2023-04-25T09:14:48.952Z,73.1262207
2023-04-25T09:15:51.089Z,73.4375
2023-04-25T09:16:52.058Z,73.36425781
2023-04-25T09:17:53.112Z,75.79345703
2023-04-25T09:18:54.604Z,75.79345703
2023-04-25T09:19:56.061Z,76.37939453
2023-04-25T09:21:01.768Z,78.05786133
2023-04-25T09:21:58.687Z,78.05786133
2023-04-25T09:22:59.632Z,78.16162109
2023-04-25T09:24:00.654Z,78.32641602
2023-04-25T09:25:02.050Z,77.64892578
2023-04-25T09:26:03.543Z,78.26538086
2023-04-25T09:27:04.486Z,78.26538086
2023-04-25T09:28:05.618Z,78.36303711
2023-04-25T09:29:07.697Z,77.70996094
2023-04-25T09:30:40.088Z,77.74658203
2023-04-25T09:31:41.638Z,78.05786133
2023-04-25T09:32:42.610Z,78.125
2023-04-25T09:33:43.859Z,78.43017578
2023-04-25T09:34:45.579Z,78.02124023
2023-04-25T09:35:47.161Z,77.98461914
2023-04-25T09:36:48.563Z,77.06298828
2023-04-25T09:37:49.466Z,77.57568359
2023-04-25T09:38:50.552Z,77.2644043
2023-04-25T09:39:52.116Z,76.92260742
2023-04-25T09:40:53.729Z,77.02636719
2023-04-25T09:41:54.454Z,76.81884766
2023-04-25T09:42:56.094Z,76.47705078
2023-04-25T09:43:57.276Z,76.47705078
2023-04-25T09:44:58.644Z,76.171875
2023-04-25T09:46:00.656Z,76.26953125
2023-04-25T09:47:01.388Z,76.26953125
2023-04-25T09:48:03.133Z,76.171875
2023-04-25T09:49:03.964Z,76.47705078
2023-04-25T09:50:05.549Z,76.47705078
2023-04-25T09:51:07.519Z,75.82397461
2023-04-25T09:52:39.466Z,75.62255859
2023-04-25T09:53:41.027Z,75.82397461
2023-04-25T09:54:42.623Z,75.79345703
2023-04-25T09:55:44.632Z,74.96948242
2023-04-25T09:56:46.554Z,74.56054688
2023-04-25T09:57:47.369Z,74.56054688
2023-04-25T09:58:49.123Z,75.48217773
2023-04-25T09:59:50.087Z,75.89111328
2023-04-25T10:00:51.611Z,75.38452148
2023-04-25T10:01:53.699Z,75.68969727
2023-04-25T10:02:54.659Z,75.38452148
2023-04-25T10:03:55.554Z,75.68969727
2023-04-25T10:04:57.285Z,76.30615234
2023-04-25T10:05:58.598Z,75.62255859
2023-04-25T10:06:59.673Z,75.5859375
2023-04-25T10:08:01.566Z,75.79345703
2023-04-25T10:09:03.154Z,75.89111328
2023-04-25T10:10:05.063Z,75.38452148
2023-04-25T10:11:06.109Z,74.66430664
2023-04-25T10:12:07.555Z,74.45678711
2023-04-25T10:13:39.066Z,74.62768555
2023-04-25T10:14:40.033Z,74.15161133
2023-04-25T10:15:41.572Z,74.87182617
2023-04-25T10:16:43.292Z,74.76806641
2023-04-25T10:17:44.450Z,75.17700195
2023-04-25T10:18:46.112Z,75.48217773
2023-04-25T10:19:47.172Z,75.17700195
2023-04-25T10:20:48.597Z,75.48217773
2023-04-25T10:21:49.600Z,75.68969727
2023-04-25T10:22:50.569Z,75.17700195
2023-04-25T10:23:51.761Z,75.17700195
2023-04-25T10:24:53.026Z,74.56054688
2023-04-25T10:25:54.612Z,74.45678711
2023-04-25T10:26:56.581Z,74.35913086
2023-04-25T10:27:57.578Z,73.80981445
2023-04-25T10:28:59.096Z,72.61352539
2023-04-25T10:30:00.642Z,73.22998047
2023-04-25T10:31:02.641Z,73.74267578
2023-04-25T10:32:03.497Z,75.07324219
2023-04-25T10:33:04.437Z,74.87182617
2023-04-25T10:34:05.439Z,74.83520508
2023-04-25T10:35:07.608Z,73.70605469
2023-04-25T10:36:39.764Z,73.26660156
2023-04-25T10:37:40.956Z,73.26660156
2023-04-25T10:38:42.719Z,73.57177734
2023-04-25T10:39:44.622Z,73.26660156
2023-04-25T10:40:47.124Z,72.95532227
2023-04-25T10:41:48.115Z,72.54638672
2023-04-25T10:42:49.165Z,72.00317383
2023-04-25T10:43:50.280Z,72.30834961
2023-04-25T10:44:51.861Z,72.10693359
2023-04-25T10:45:53.701Z,72.41210938
2023-04-25T10:46:54.701Z,72.68676758
2023-04-25T10:47:55.768Z,71.97265625
2023-04-25T10:48:57.618Z,70.70922852
2023-04-25T10:49:59.089Z,68.96972656
2023-04-25T10:51:01.140Z,69.28100586
2023-04-25T10:52:02.151Z,69.17724609
2023-04-25T10:53:03.142Z,69.48242188
2023-04-25T10:54:04.119Z,69.58618164
2023-04-25T10:55:05.635Z,69.89135742
2023-04-25T10:56:09.024Z,67.91992188
2023-04-25T10:57:39.143Z,67.91992188
2023-04-25T10:58:40.682Z,67.51098633
2023-04-25T10:59:41.609Z,66.69311523
2023-04-25T11:00:53.599Z,67.10205078
2023-04-25T11:01:44.715Z,67.61474609
2023-04-25T11:02:45.836Z,69.04296875
2023-04-25T11:03:46.942Z,69.55566406
2023-04-25T11:04:48.858Z,68.93920898
2023-04-25T11:05:57.830Z,69.34814453
2023-04-25T11:06:53.828Z,68.43261719
2023-04-25T11:07:59.852Z,67.81616211
2023-04-25T11:08:54.661Z,68.12133789
2023-04-25T11:09:56.638Z,67.81616211
2023-04-25T11:10:58.626Z,67.51098633
2023-04-25T11:12:00.224Z,66.796875
2023-04-25T11:13:01.219Z,64.6484375
2023-04-25T11:14:03.085Z,65.05737305
2023-04-25T11:15:04.126Z,65.57006836
2023-04-25T11:16:12.399Z,66.08276367
2023-04-25T11:17:07.757Z,66.55883789
2023-04-25T11:18:40.129Z,66.86401367